Latest Coastal Weather Observations for Hillarys Point Boat Harbour

IDW60701

Issued at 11:03 am WST Tuesday 28 February 2017 (issued every 10 minutes, with the page automatically refreshed every 10 minutes)

About coastal observations | Map of coastal stations | Coastal observations for WA | Marine services | Other Formats
Station Details ID: 009265 Name: HILLARYS BOAT HARBOUR NTC AWS Lat: -31.83 Lon: 115.74 Height: 0.0 m
Data from the previous 72 hours. | See also: Recent months for locations in Western Australia
Date/Time
WST
Temp
°C
Wind Pressure Rain since
9am
mm
Weather Cloud Vis
km
Sea
Height
m
Swell
Dir  Spd
kts
Gust
kts
hPa Trend Height
m
Period
s
Dir
28/11:00am 23.3 SW 6 10 1014.4 - - - - - - - - -
28/10:30am 22.9 SW 8 11 1014.4 - - - - - - - - -
28/10:00am 22.7 SW 6 9 1014.4 - - - - - - - - -
28/09:30am 23.1 SW 4 6 1014.3 - - - - - - - - -
28/09:00am 22.7 SSW 3 7 1014.5 - - - - - - - - -
28/08:30am 22.4 S 2 5 1014.7 - - - - - - - - -
28/08:00am 21.9 SSE 2 5 1014.7 - - - - - - - - -
28/07:30am 21.2 S 2 5 1014.9 - - - - - - - - -
28/07:00am 20.8 S 2 4 1014.8 - - - - - - - - -
28/06:30am 20.2 SSE 2 4 1014.7 - - - - - - - - -
28/06:00am 20.0 SSE 1 3 1014.5 - - - - - - - - -
28/05:30am 20.1 SSE 2 4 1014.4 - - - - - - - - -
28/05:00am 20.1 SSE 3 5 1014.2 - - - - - - - - -
28/04:30am 20.0 ESE 1 4 1014.0 - - - - - - - - -
28/04:00am 20.1 SE 3 6 1014.0 - - - - - - - - -
28/03:30am 20.6 SSE 4 8 1013.8 - - - - - - - - -
28/03:00am 20.6 S 3 7 1013.7 - - - - - - - - -
28/02:30am 20.8 S 3 6 1014.0 - - - - - - - - -
28/02:00am 21.2 SSE 3 7 1013.9 - - - - - - - - -
28/01:30am 21.5 SSE 3 7 1014.2 - - - - - - - - -
28/01:00am 21.9 S 3 7 1014.5 - - - - - - - - -
28/12:30am 21.8 S 4 10 1014.8 - - - - - - - - -
28/12:00am 21.7 SSW 6 12 1015.0 - - - - - - - - -
 
Date/Time
WST
Temp
°C
Wind Pressure Rain since
9am
mm
Weather Cloud Vis
km
Sea
Height
m
Swell
Dir  Spd
kts
Gust
kts
hPa Trend Height
m
Period
s
Dir
27/11:30pm 21.9 SSW 4 12 1015.1 - - - - - - - - -
27/11:00pm 21.8 SSW 5 10 1015.3 - - - - - - - - -
27/10:30pm 21.6 SSW 6 13 1015.6 - - - - - - - - -
27/10:00pm 21.9 SSW 5 12 1015.5 - - - - - - - - -
27/09:30pm 21.9 SSW 8 15 1015.5 - - - - - - - - -
27/09:00pm 21.8 SSW 6 10 1015.1 - - - - - - - - -
27/08:30pm 21.8 SSW 6 12 1014.5 - - - - - - - - -
27/08:00pm 21.8 SSW 4 8 1014.4 - - - - - - - - -
27/07:30pm 21.9 SSW 4 11 1014.4 - - - - - - - - -
27/07:00pm 22.0 SSW 5 12 1014.3 - - - - - - - - -
27/06:30pm 22.1 SSW 6 13 1014.2 - - - - - - - - -
27/06:00pm 22.3 SSW 7 15 1014.1 - - - - - - - - -
27/05:30pm 22.3 SSW 8 14 1013.8 - - - - - - - - -
27/05:00pm 22.9 SSW 8 15 1013.9 - - - - - - - - -
27/04:30pm 22.9 SSW 8 15 1013.8 - - - - - - - - -
27/04:00pm 22.7 SSW 8 14 1013.7 - - - - - - - - -
27/03:30pm 22.8 SSW 7 13 1013.6 - - - - - - - - -
27/03:00pm 22.8 SSW 7 12 1013.7 - - - - - - - - -
27/02:30pm 22.8 SW 7 12 1013.7 - - - - - - - - -
27/02:00pm 22.6 SW 9 13 1013.8 - - - - - - - - -
27/01:30pm 23.0 SW 7 11 1013.9 - - - - - - - - -
27/01:00pm 22.9 SW 7 10 1014.2 - - - - - - - - -
27/12:30pm 23.1 SW 5 8 1014.2 - - - - - - - - -
27/12:00pm 22.8 SW 8 11 1014.3 - - - - - - - - -
27/11:30am 22.7 SW 7 10 1014.5 - - - - - - - - -
27/11:00am 22.7 SW 7 9 1014.6 - - - - - - - - -
27/10:30am 22.4 SW 6 8 1014.8 - - - - - - - - -
27/10:00am 22.1 SW 4 5 1014.8 - - - - - - - - -
27/09:30am 22.3 SW 3 5 1014.7 - - - - - - - - -
27/09:00am 21.8 SW 3 5 1014.9 - - - - - - - - -
27/08:30am 21.7 SSE 2 3 1014.9 - - - - - - - - -
27/08:00am 21.1 SSE 2 5 1014.7 - - - - - - - - -
27/07:30am 20.5 SE 2 4 1014.5 - - - - - - - - -
27/07:00am 19.7 S 1 5 1014.1 - - - - - - - - -
27/06:30am 18.2 ESE 1 1 1013.7 - - - - - - - - -
27/06:00am 18.5 ESE 1 3 1013.5 - - - - - - - - -
27/05:30am 18.9 ESE 2 4 1013.1 - - - - - - - - -
27/05:00am 19.6 SSE 3 5 1012.7 - - - - - - - - -
27/04:30am 19.9 SE 3 6 1012.6 - - - - - - - - -
27/04:00am 19.8 ESE 1 3 1012.6 - - - - - - - - -
27/03:30am 19.5 E 1 2 1012.6 - - - - - - - - -
27/03:00am 20.2 SE 1 4 1012.5 - - - - - - - - -
27/02:30am 20.4 SSE 2 5 1012.6 - - - - - - - - -
27/02:00am 20.8 SSE 3 5 1012.7 - - - - - - - - -
27/01:30am 20.8 SSE 4 6 1012.9 - - - - - - - - -
27/01:00am 20.7 ESE 1 3 1013.1 - - - - - - - - -
27/12:30am 21.1 SSE 3 5 1013.1 - - - - - - - - -
27/12:00am 21.3 SSE 3 5 1013.1 - - - - - - - - -
 
Date/Time
WST
Temp
°C
Wind Pressure Rain since
9am
mm
Weather Cloud Vis
km
Sea
Height
m
Swell
Dir  Spd
kts
Gust
kts
hPa Trend Height
m
Period
s
Dir
26/11:30pm 21.6 S 3 7 1013.1 - - - - - - - - -
26/11:00pm 21.4 SSW 5 10 1013.1 - - - - - - - - -
26/10:30pm 21.3 SSW 4 11 1013.4 - - - - - - - - -
26/10:00pm 21.4 SSW 5 11 1013.6 - - - - - - - - -
26/09:30pm 21.4 SSW 4 11 1013.7 - - - - - - - - -
26/09:00pm 21.5 SSW 5 11 1013.3 - - - - - - - - -
26/08:30pm 21.5 SSW 7 13 1013.0 - - - - - - - - -
26/08:00pm 21.5 SSW 6 11 1012.8 - - - - - - - - -
26/07:30pm 21.3 SSW 6 12 1012.7 - - - - - - - - -
26/07:00pm 21.4 SSW 7 15 1012.7 - - - - - - - - -
26/06:30pm 21.4 SSW 8 14 1012.5 - - - - - - - - -
26/06:00pm 21.7 SSW 7 15 1012.4 - - - - - - - - -
26/05:30pm 21.9 SSW 7 12 1012.6 - - - - - - - - -
26/05:00pm 22.0 SSW 7 12 1012.5 - - - - - - - - -
26/04:30pm 22.2 SSW 8 15 1012.2 - - - - - - - - -
26/04:00pm 22.4 SSW 7 12 1011.9 - - - - - - - - -
26/03:30pm 22.3 SSW 7 11 1012.1 - - - - - - - - -
26/03:00pm 22.2 SW 8 15 1011.7 - - - - - - - - -
26/02:30pm 22.2 SW 8 12 1011.7 - - - - - - - - -
26/02:00pm 22.4 SSW 7 13 1011.6 - - - - - - - - -
26/01:30pm 21.9 SW 7 11 1012.0 - - - - - - - - -
26/01:00pm 21.6 SW 8 13 1011.9 - - - - - - - - -
26/12:30pm 21.6 SW 9 12 1012.0 - - - - - - - - -
26/12:00pm 21.6 SW 9 13 1012.1 - - - - - - - - -
26/11:30am 21.2 WSW 9 11 1012.1 - - - - - - - - -
26/11:00am 21.7 SW 8 11 1012.0 - - - - - - - - -
26/10:30am 22.1 SSW 4 8 1012.0 - - - - - - - - -
26/10:00am 22.1 SSW 4 9 1011.8 - - - - - - - - -
26/09:30am 22.2 S 4 10 1011.9 - - - - - - - - -
26/09:00am 21.7 SSW 7 13 1011.5 - - - - - - - - -
26/08:30am 21.4 SSW 7 13 1011.3 - - - - - - - - -
26/08:00am 21.1 SW 8 12 1011.4 - - - - - - - - -
26/07:30am 21.2 SW 9 13 1011.0 - - - - - - - - -
26/07:00am 21.3 W 5 8 1011.0 - - - - - - - - -
26/06:30am 20.5 CALM 0 1 1010.2 - - - - - - - - -
26/06:00am 20.7 S 1 3 1010.1 - - - - - - - - -
26/05:30am 20.7 SSW 2 3 1009.9 - - - - - - - - -
26/05:00am 20.7 SSE 1 3 1009.8 - - - - - - - - -
26/04:30am 21.4 S 3 11 1009.5 - - - - - - - - -
26/04:00am 21.4 SSW 4 10 1009.9 - - - - - - - - -
26/03:30am 21.5 SSW 4 8 1009.9 - - - - - - - - -
26/03:00am 21.5 SSW 4 10 1010.0 - - - - - - - - -
26/02:30am 21.4 SSW 4 10 1010.2 - - - - - - - - -
26/02:00am 21.5 SSW 6 11 1010.5 - - - - - - - - -
26/01:30am 21.7 SSW 6 14 1010.7 - - - - - - - - -
26/01:00am 21.8 SSW 6 10 1010.8 - - - - - - - - -
26/12:30am 21.8 SSW 7 12 1010.8 - - - - - - - - -
26/12:00am 21.9 SSW 7 13 1010.9 - - - - - - - - -
 
Date/Time
WST
Temp
°C
Wind Pressure Rain since
9am
mm
Weather Cloud Vis
km
Sea
Height
m
Swell
Dir  Spd
kts
Gust
kts
hPa Trend Height
m
Period
s
Dir
25/11:30pm 22.4 SSW 5 10 1010.8 - - - - - - - - -
25/11:00pm 22.6 SSW 7 13 1010.9 - - - - - - - - -
25/10:30pm 23.3 SSW 7 15 1011.0 - - - - - - - - -
25/10:00pm 23.8 SSW 3 8 1011.0 - - - - - - - - -
25/09:30pm 24.0 S 2 5 1011.1 - - - - - - - - -
25/09:00pm 24.5 SSW 1 4 1010.9 - - - - - - - - -
25/08:30pm 25.0 SSW 2 6 1010.7 - - - - - - - - -
25/08:00pm 24.8 S 1 4 1010.6 - - - - - - - - -
25/07:30pm 25.5 S 2 5 1010.5 - - - - - - - - -
25/07:00pm 25.0 SSW 1 5 1010.2 - - - - - - - - -
25/06:30pm 25.3 S 2 5 1010.2 - - - - - - - - -
25/06:00pm 25.8 S 2 4 1010.1 - - - - - - - - -
25/05:30pm 25.9 S 3 6 1010.2 - - - - - - - - -
25/05:00pm 26.1 SSE 3 7 1010.3 - - - - - - - - -
25/04:30pm 26.5 SSE 4 7 1010.6 - - - - - - - - -
25/04:00pm 26.9 S 3 6 1010.8 - - - - - - - - -
25/03:30pm 27.0 SSE 4 7 1010.9 - - - - - - - - -
25/03:00pm 27.9 SSE 3 7 1011.3 - - - - - - - - -
25/02:30pm 28.3 SSE 4 8 1011.5 - - - - - - - - -
25/02:00pm 29.6 S 2 4 1011.8 - - - - - - - - -
25/01:30pm 32.5 SW 2 5 1012.2 - - - - - - - - -
25/01:00pm 30.2 NW 3 7 1012.5 - - - - - - - - -
25/12:57pm 31.2 N 3 7 1012.6 - - - - - - - - -
25/12:30pm 36.5 NE 6 12 1012.8 - - - - - - - - -
25/12:00pm 35.7 NNE 7 11 1013.1 - - - - - - - - -
25/11:30am 35.0 NNE 7 12 1013.6 - - - - - - - - -

Other Formats:

Comma delimited format used in spreadsheet applications
http://www.bom.gov.au/fwo/IDW60701/IDW60701.95605.axf

JavaScript Object Notation format (JSON) in row-major order
http://www.bom.gov.au/fwo/IDW60701/IDW60701.95605.json